createdAt,value
2022-08-22T00:02:28.363Z,95210.91
2022-08-22T00:03:07.587Z,95202.69
2022-08-22T00:05:00.957Z,95211.44
2022-08-22T00:07:46.110Z,95212.28
2022-08-22T00:10:24.926Z,95201.75
2022-08-22T00:13:13.552Z,95206.84
2022-08-22T00:15:46.823Z,95210.91
2022-08-22T00:18:28.291Z,95212.50
2022-08-22T00:21:31.272Z,95210.34
2022-08-22T00:24:27.667Z,95214.63
2022-08-22T00:27:20.316Z,95218.94
2022-08-22T00:29:57.699Z,95219.00
2022-08-22T00:32:35.387Z,95212.00
2022-08-22T00:35:01.874Z,95208.28
2022-08-22T00:37:43.220Z,95216.41
2022-08-22T00:40:31.331Z,95220.75
2022-08-22T00:43:19.725Z,95216.50
2022-08-22T00:45:52.224Z,95212.22
2022-08-22T00:48:49.550Z,95213.06
2022-08-22T00:51:32.001Z,95197.69
2022-08-22T00:54:04.517Z,95197.13
2022-08-22T00:57:08.219Z,95194.13
2022-08-22T00:59:34.701Z,95204.31
2022-08-22T01:02:29.644Z,95193.34
2022-08-22T01:05:11.354Z,95198.19
2022-08-22T01:07:54.180Z,95195.00
2022-08-22T01:10:45.036Z,95203.06
2022-08-22T01:13:45.421Z,95204.38
2022-08-22T01:16:48.529Z,95197.47
2022-08-22T01:19:34.015Z,95192.88
2022-08-22T01:22:35.486Z,95196.06
2022-08-22T01:25:22.547Z,95204.13
2022-08-22T01:28:20.181Z,95205.75
2022-08-22T01:31:28.652Z,95201.16
2022-08-22T01:34:13.069Z,95206.25
2022-08-22T01:36:58.430Z,95202.56
2022-08-22T01:39:34.288Z,95202.31
2022-08-22T01:42:16.476Z,95209.28
2022-08-22T01:44:58.004Z,95211.97
2022-08-22T01:47:37.593Z,95207.94
2022-08-22T01:50:22.810Z,95207.13
2022-08-22T01:52:59.252Z,95209.53
2022-08-22T01:55:38.690Z,95204.44
2022-08-22T01:58:23.259Z,95211.69
2022-08-22T02:01:28.696Z,95217.59
2022-08-22T02:03:59.010Z,95206.88
2022-08-22T02:06:48.133Z,95221.97
2022-08-22T02:09:20.832Z,95214.53
2022-08-22T02:11:56.046Z,95210.81
2022-08-22T02:14:32.883Z,95223.44
2022-08-22T02:17:25.779Z,95221.59
2022-08-22T02:20:01.748Z,95219.25
2022-08-22T02:22:44.399Z,95217.69
2022-08-22T02:25:25.840Z,95214.22
2022-08-22T02:27:55.119Z,95208.34
2022-08-22T02:30:30.383Z,95207.00
2022-08-22T02:33:26.696Z,95216.41
2022-08-22T02:36:19.857Z,95229.81
2022-08-22T02:38:54.620Z,95233.06
2022-08-22T02:41:44.139Z,95221.75
2022-08-22T02:44:28.272Z,95225.59
2022-08-22T02:47:03.788Z,95228.03
2022-08-22T02:50:02.765Z,95218.41
2022-08-22T02:53:04.757Z,95209.88
2022-08-22T02:55:50.322Z,95203.47
2022-08-22T02:58:27.476Z,95210.19
2022-08-22T03:01:02.849Z,95210.72
2022-08-22T03:03:36.283Z,95210.72
2022-08-22T03:06:09.072Z,95211.22
2022-08-22T03:08:47.542Z,95205.00
2022-08-22T03:11:30.065Z,95206.81
2022-08-22T03:14:14.498Z,95203.28
2022-08-22T03:16:55.250Z,95201.94
2022-08-22T03:19:31.948Z,95207.31
2022-08-22T03:22:03.736Z,95198.25
2022-08-22T03:24:38.425Z,95200.41
2022-08-22T03:27:15.207Z,95198.09
2022-08-22T03:30:06.997Z,95208.56
2022-08-22T03:32:59.225Z,95214.47
2022-08-22T03:35:34.923Z,95209.69
2022-08-22T03:38:23.690Z,95213.47
2022-08-22T03:41:00.991Z,95223.16
2022-08-22T03:43:52.332Z,95217.75
2022-08-22T03:46:37.260Z,95227.09
2022-08-22T03:49:35.828Z,95223.63
2022-08-22T03:52:30.937Z,95226.84
2022-08-22T03:55:15.038Z,95216.34
2022-08-22T03:58:07.832Z,95219.31
2022-08-22T04:01:14.825Z,95211.28
2022-08-22T04:04:13.422Z,95222.03
2022-08-22T04:07:28.575Z,95217.19
2022-08-22T04:10:25.613Z,95232.75
2022-08-22T04:13:03.392Z,95231.63
2022-08-22T04:15:58.115Z,95233.19
2022-08-22T04:18:24.597Z,95232.63
2022-08-22T04:21:12.341Z,95219.75
2022-08-22T04:23:58.573Z,95223.53
2022-08-22T04:26:34.040Z,95234.78
2022-08-22T04:29:14.627Z,95232.63
2022-08-22T04:31:52.893Z,95234.75
2022-08-22T04:34:30.764Z,95242.03
2022-08-22T04:37:05.463Z,95249.25
2022-08-22T04:39:42.099Z,95249.75
2022-08-22T04:42:32.847Z,95250.25
2022-08-22T04:45:15.484Z,95264.19
2022-08-22T04:48:04.951Z,95274.06
2022-08-22T04:50:37.998Z,95281.56
2022-08-22T04:53:42.523Z,95289.34
2022-08-22T04:56:12.011Z,95292.56
2022-08-22T04:58:47.614Z,95297.47
2022-08-22T05:01:18.879Z,95301.53
2022-08-22T05:03:57.462Z,95302.34
2022-08-22T05:06:28.658Z,95296.47
2022-08-22T05:08:59.888Z,95290.59
2022-08-22T05:11:27.796Z,95279.38
2022-08-22T05:14:02.701Z,95284.75
2022-08-22T05:16:34.634Z,95288.44
2022-08-22T05:19:12.012Z,95291.13
2022-08-22T05:21:48.043Z,95285.72
2022-08-22T05:24:23.468Z,95283.53
2022-08-22T05:26:59.190Z,95287.25
2022-08-22T05:29:29.730Z,95280.25
2022-08-22T05:32:04.181Z,95281.59
2022-08-22T05:34:39.006Z,95274.94
2022-08-22T05:37:17.800Z,95277.09
2022-08-22T05:39:49.160Z,95277.66
2022-08-22T05:42:23.251Z,95283.03
2022-08-22T05:44:49.990Z,95288.91
2022-08-22T05:47:35.267Z,95288.34
2022-08-22T05:50:20.090Z,95284.28
2022-08-22T05:53:24.890Z,95291.50
2022-08-22T05:56:03.455Z,95288.00
2022-08-22T05:58:35.846Z,95285.84
2022-08-22T06:01:37.945Z,95287.44
2022-08-22T06:04:13.700Z,95288.47
2022-08-22T06:06:50.992Z,95287.13
2022-08-22T06:09:44.581Z,95285.53
2022-08-22T06:12:30.056Z,95288.47
2022-08-22T06:14:56.830Z,95286.06
2022-08-22T06:17:31.244Z,95290.59
2022-08-22T06:20:00.196Z,95298.38
2022-08-22T06:22:29.119Z,95293.31
2022-08-22T06:24:58.754Z,95288.75
2022-08-22T06:27:31.325Z,95289.00
2022-08-22T06:30:01.498Z,95291.13
2022-08-22T06:32:59.482Z,95295.13
2022-08-22T06:35:50.926Z,95299.44
2022-08-22T06:38:19.994Z,95294.28
2022-08-22T06:40:47.092Z,95311.72
2022-08-22T06:43:13.850Z,95313.91
2022-08-22T06:45:41.593Z,95315.00
2022-08-22T06:48:08.661Z,95310.13
2022-08-22T06:50:41.993Z,95300.97
2022-08-22T06:53:24.740Z,95313.84
2022-08-22T06:55:55.168Z,95314.63
2022-08-22T06:58:37.920Z,95319.72
2022-08-22T07:01:12.941Z,95316.19
2022-08-22T07:03:45.189Z,95320.44
2022-08-22T07:06:18.265Z,95316.09
2022-08-22T07:08:45.542Z,95316.34
2022-08-22T07:11:21.920Z,95316.28
2022-08-22T07:13:58.474Z,95321.91
2022-08-22T07:16:31.155Z,95314.06
2022-08-22T07:18:57.902Z,95315.44
2022-08-22T07:21:32.866Z,95313.03
2022-08-22T07:24:03.226Z,95316.78
2022-08-22T07:27:12.717Z,95312.50
2022-08-22T07:29:53.570Z,95325.38
2022-08-22T07:32:35.144Z,95317.25
2022-08-22T07:35:22.362Z,95324.75
2022-08-22T07:38:22.327Z,95314.00
2022-08-22T07:41:20.109Z,95311.31
2022-08-22T07:43:57.666Z,95311.28
2022-08-22T07:46:39.073Z,95313.13
2022-08-22T07:49:21.871Z,95321.19
2022-08-22T07:51:55.658Z,95330.56
2022-08-22T07:54:41.624Z,95331.59
2022-08-22T07:57:14.938Z,95327.03
2022-08-22T07:59:53.411Z,95332.19
2022-08-22T08:02:21.348Z,95337.56
2022-08-22T08:04:53.866Z,95332.97
2022-08-22T08:07:24.241Z,95326.50
2022-08-22T08:09:59.634Z,95330.56
2022-08-22T08:12:34.988Z,95342.44
2022-08-22T08:15:04.250Z,95344.88
2022-08-22T08:17:34.368Z,95347.28
2022-08-22T08:20:08.740Z,95343.00
2022-08-22T08:22:37.487Z,95346.53
2022-08-22T08:25:05.970Z,95355.97
2022-08-22T08:27:55.534Z,95344.88
2022-08-22T08:30:38.649Z,95355.34
2022-08-22T08:33:24.915Z,95349.94
2022-08-22T08:36:04.477Z,95351.78
2022-08-22T08:39:14.402Z,95366.53
2022-08-22T08:41:58.926Z,95366.53
2022-08-22T08:44:37.699Z,95367.84
2022-08-22T08:47:16.334Z,95365.94
2022-08-22T08:49:52.231Z,95362.72
2022-08-22T08:52:31.280Z,95359.72
2022-08-22T08:55:19.664Z,95368.28
2022-08-22T08:58:26.367Z,95368.59
2022-08-22T09:01:08.268Z,95371.28
2022-08-22T09:04:19.702Z,95367.84
2022-08-22T09:07:12.825Z,95375.66
2022-08-22T09:10:11.360Z,95376.16
2022-08-22T09:16:20.432Z,95374.50
2022-08-22T09:18:52.591Z,95372.56
2022-08-22T09:21:31.286Z,95373.38
2022-08-22T09:24:09.740Z,95370.91
2022-08-22T09:26:46.957Z,95371.16
2022-08-22T09:29:32.421Z,95371.16
2022-08-22T09:32:23.704Z,95367.69
2022-08-22T09:35:14.688Z,95367.41
2022-08-22T09:37:51.715Z,95370.16
2022-08-22T09:40:16.062Z,95373.97
2022-08-22T09:40:30.679Z,95367.75
2022-08-22T09:43:29.549Z,95355.66
2022-08-22T09:46:15.468Z,95350.50
2022-08-22T09:48:52.934Z,95356.97
2022-08-22T09:51:31.444Z,95353.13
2022-08-22T09:54:07.506Z,95351.25
2022-08-22T09:56:58.523Z,95353.88
2022-08-22T09:59:43.312Z,95358.13
2022-08-22T10:02:44.174Z,95356.75
2022-08-22T10:05:40.270Z,95358.56
2022-08-22T10:08:26.229Z,95363.38
2022-08-22T10:10:59.437Z,95351.25
2022-08-22T10:13:34.896Z,95353.06
2022-08-22T10:16:04.851Z,95357.31
2022-08-22T10:18:56.170Z,95364.94
2022-08-22T10:21:27.490Z,95366.94
2022-08-22T10:24:15.218Z,95373.72
2022-08-22T10:27:07.570Z,95366.78
2022-08-22T10:29:40.099Z,95359.16
2022-08-22T10:32:32.368Z,95364.47
2022-08-22T10:35:08.036Z,95372.78
2022-08-22T10:37:50.259Z,95376.53
2022-08-22T10:40:26.094Z,95371.84
2022-08-22T10:43:00.338Z,95370.19
2022-08-22T10:45:54.727Z,95371.00
2022-08-22T10:48:26.735Z,95376.09
2022-08-22T10:51:08.639Z,95369.56
2022-08-22T10:54:00.086Z,95371.19
2022-08-22T10:56:46.149Z,95374.94
2022-08-22T10:59:53.074Z,95370.19
2022-08-22T11:02:47.986Z,95368.94
2022-08-22T11:05:27.418Z,95368.66
2022-08-22T11:08:16.597Z,95372.44
2022-08-22T11:11:01.625Z,95374.06
2022-08-22T11:13:47.184Z,95382.13
2022-08-22T11:16:46.868Z,95379.22
2022-08-22T11:19:25.381Z,95376.22
2022-08-22T11:22:28.332Z,95367.63
2022-08-22T11:25:14.281Z,95362.25
2022-08-22T11:28:14.968Z,95370.38
2022-08-22T11:31:22.484Z,95365.34
2022-08-22T11:34:03.696Z,95369.94
2022-08-22T11:36:54.439Z,95364.53
2022-08-22T11:39:28.452Z,95368.28
2022-08-22T11:42:34.074Z,95365.59
2022-08-22T11:45:05.010Z,95368.56
2022-08-22T11:47:39.730Z,95372.56
2022-08-22T11:50:25.637Z,95364.78
2022-08-22T11:53:04.568Z,95368.81
2022-08-22T11:56:08.744Z,95365.81
2022-08-22T11:58:50.677Z,95366.88
2022-08-22T12:01:22.044Z,95358.81
2022-08-22T12:04:00.896Z,95363.84
2022-08-22T12:06:45.404Z,95357.59
2022-08-22T12:09:42.614Z,95360.53
2022-08-22T12:12:21.378Z,95353.44
2022-08-22T12:15:28.838Z,95353.97
2022-08-22T12:18:21.540Z,95349.63
2022-08-22T12:21:03.548Z,95347.41
2022-08-22T12:23:55.851Z,95347.63
2022-08-22T12:27:00.294Z,95338.66
2022-08-22T12:29:33.775Z,95345.00
2022-08-22T12:32:33.916Z,95343.78
2022-08-22T12:35:16.002Z,95340.41
2022-08-22T12:38:03.548Z,95342.94
2022-08-22T12:41:28.459Z,95334.63
2022-08-22T12:44:30.943Z,95336.50
2022-08-22T12:47:25.399Z,95332.56
2022-08-22T12:50:21.532Z,95327.50
2022-08-22T12:53:10.192Z,95323.03
2022-08-22T12:55:51.568Z,95320.44
2022-08-22T12:58:35.716Z,95319.84
2022-08-22T13:01:07.063Z,95307.03
2022-08-22T13:03:41.091Z,95299.84
2022-08-22T13:06:35.335Z,95298.56
2022-08-22T13:09:18.608Z,95300.88
2022-08-22T13:11:49.623Z,95290.53
2022-08-22T13:14:25.643Z,95280.22
2022-08-22T13:17:00.839Z,95279.75
2022-08-22T13:19:59.273Z,95272.00
2022-08-22T13:22:29.599Z,95262.03
2022-08-22T13:25:27.329Z,95260.19
2022-08-22T13:28:01.286Z,95264.19
2022-08-22T13:30:42.316Z,95271.81
2022-08-22T13:33:14.420Z,95264.97
2022-08-22T13:35:52.761Z,95265.78
2022-08-22T13:38:27.245Z,95264.66
2022-08-22T13:40:57.938Z,95269.94
2022-08-22T13:43:30.125Z,95261.72
2022-08-22T13:46:03.223Z,95262.50
2022-08-22T13:48:47.568Z,95273.25
2022-08-22T13:51:25.430Z,95266.63
2022-08-22T13:54:10.815Z,95269.00
2022-08-22T13:57:17.532Z,95288.72
2022-08-22T14:00:06.117Z,95277.41
2022-08-22T14:02:44.939Z,95280.81
2022-08-22T14:05:19.903Z,95281.25
2022-08-22T14:08:18.446Z,95281.75
2022-08-22T14:10:55.047Z,95275.59
2022-08-22T14:13:37.660Z,95272.75
2022-08-22T14:16:10.455Z,95276.09
2022-08-22T14:19:09.120Z,95279.44
2022-08-22T14:21:51.144Z,95275.25
2022-08-22T14:24:25.868Z,95276.66
2022-08-22T14:27:11.038Z,95280.63
2022-08-22T14:30:12.787Z,95283.25
2022-08-22T14:33:11.923Z,95279.69
2022-08-22T14:35:45.239Z,95282.00
2022-08-22T14:38:53.392Z,95275.47
2022-08-22T14:41:52.941Z,95274.88
2022-08-22T14:44:55.790Z,95280.31
2022-08-22T14:47:55.418Z,95274.47
2022-08-22T14:50:42.265Z,95269.22
2022-08-22T14:53:25.171Z,95270.19
2022-08-22T14:55:57.378Z,95270.19
2022-08-22T14:58:27.575Z,95270.81
2022-08-22T15:00:56.337Z,95272.63
2022-08-22T15:03:22.983Z,95273.41
2022-08-22T15:05:55.041Z,95281.41
2022-08-22T15:08:27.481Z,95286.19
2022-08-22T15:11:28.033Z,95293.22
2022-08-22T15:14:12.571Z,95288.41
2022-08-22T15:16:45.307Z,95293.34
2022-08-22T15:19:32.786Z,95286.44
2022-08-22T15:22:11.205Z,95291.06
2022-08-22T15:24:46.471Z,95288.19
2022-08-22T15:27:19.142Z,95294.09
2022-08-22T15:29:58.610Z,95299.91
2022-08-22T15:32:28.736Z,95290.31
2022-08-22T15:35:14.650Z,95298.25
2022-08-22T15:38:01.565Z,95292.84
2022-08-22T15:40:33.879Z,95286.91
2022-08-22T15:43:19.927Z,95286.41
2022-08-22T15:45:48.947Z,95286.91
2022-08-22T15:48:54.513Z,95287.72
2022-08-22T15:51:46.303Z,95275.47
2022-08-22T15:54:24.753Z,95267.50
2022-08-22T15:56:52.005Z,95269.97
2022-08-22T15:59:43.858Z,95266.00
2022-08-22T16:02:25.723Z,95259.47
2022-08-22T16:05:13.638Z,95260.41
2022-08-22T16:07:43.180Z,95270.72
2022-08-22T16:10:21.880Z,95268.94
2022-08-22T16:13:06.905Z,95276.75
2022-08-22T16:15:51.297Z,95269.06
2022-08-22T16:18:44.808Z,95283.97
2022-08-22T16:21:17.647Z,95283.19
2022-08-22T16:23:50.219Z,95283.19
2022-08-22T16:26:21.320Z,95279.97
2022-08-22T16:28:58.850Z,95283.78
2022-08-22T16:31:34.877Z,95280.59
2022-08-22T16:34:20.292Z,95286.59
2022-08-22T16:36:47.232Z,95287.81
2022-08-22T16:39:32.788Z,95294.63
2022-08-22T16:42:14.881Z,95280.63
2022-08-22T16:44:44.256Z,95283.34
2022-08-22T16:47:12.986Z,95277.72
2022-08-22T16:50:22.718Z,95273.22
2022-08-22T16:53:28.333Z,95262.09
2022-08-22T16:56:29.462Z,95263.22
2022-08-22T16:59:23.428Z,95273.41
2022-08-22T17:02:05.776Z,95287.44
2022-08-22T17:04:32.224Z,95311.44
2022-08-22T17:07:11.507Z,95324.88
2022-08-22T17:09:52.855Z,95330.28
2022-08-22T17:12:33.250Z,95340.09
2022-08-22T17:15:29.458Z,95341.28
2022-08-22T17:18:10.702Z,95339.19
2022-08-22T17:21:10.049Z,95317.59
2022-08-22T17:23:55.319Z,95324.69
2022-08-22T17:26:39.798Z,95349.09
2022-08-22T17:29:58.299Z,95361.53
2022-08-22T17:32:44.796Z,95365.88
2022-08-22T17:35:38.844Z,95376.13
2022-08-22T17:38:27.549Z,95407.44
2022-08-22T17:41:03.131Z,95420.50
2022-08-22T17:43:56.608Z,95439.00
2022-08-22T17:46:47.071Z,95455.16
2022-08-22T17:49:41.396Z,95457.84
2022-08-22T17:52:15.934Z,95429.53
2022-08-22T17:54:52.144Z,95418.47
2022-08-22T17:57:36.956Z,95419.69
2022-08-22T18:00:44.253Z,95433.97
2022-08-22T18:03:29.770Z,95438.44
2022-08-22T18:06:05.975Z,95460.06
2022-08-22T18:11:44.904Z,95492.72
2022-08-22T18:14:35.524Z,95487.22
2022-08-22T18:17:25.875Z,95479.06
2022-08-22T18:20:03.584Z,95462.91
2022-08-22T18:22:36.105Z,95460.72
2022-08-22T18:25:20.023Z,95461.81
2022-08-22T18:27:51.788Z,95458.03
2022-08-22T18:30:23.304Z,95459.38
2022-08-22T18:33:07.235Z,95442.41
2022-08-22T18:35:43.953Z,95440.53
2022-08-22T18:38:42.530Z,95454.78
2022-08-22T18:41:20.758Z,95465.59
2022-08-22T18:43:48.322Z,95452.75
2022-08-22T18:46:31.732Z,95457.38
2022-08-22T18:49:19.065Z,95458.47
2022-08-22T18:52:05.604Z,95474.59
2022-08-22T18:54:32.075Z,95480.63
2022-08-22T18:57:24.588Z,95457.06
2022-08-22T19:00:16.649Z,95446.63
2022-08-22T19:02:55.968Z,95430.47
2022-08-22T19:05:25.817Z,95428.00
2022-08-22T19:08:28.851Z,95419.09
2022-08-22T19:11:04.344Z,95413.47
2022-08-22T19:14:03.117Z,95397.34
2022-08-22T19:16:48.194Z,95404.66
2022-08-22T19:19:22.791Z,95407.38
2022-08-22T19:22:19.917Z,95404.41
2022-08-22T19:25:01.799Z,95412.75
2022-08-22T19:27:32.173Z,95410.66
2022-08-22T19:30:20.693Z,95418.75
2022-08-22T19:32:47.223Z,95428.72
2022-08-22T19:35:20.033Z,95423.59
2022-08-22T19:40:48.387Z,95411.78
2022-08-22T19:43:30.303Z,95399.38
2022-08-22T19:45:59.825Z,95406.38
2022-08-22T19:48:31.546Z,95414.47
2022-08-22T19:51:28.719Z,95404.31
2022-08-22T19:54:00.990Z,95411.31
2022-08-22T19:56:41.116Z,95409.19
2022-08-22T19:59:38.889Z,95454.06
2022-08-22T20:02:47.867Z,95478.28
2022-08-22T20:05:31.985Z,95417.31
2022-08-22T20:08:37.584Z,95386.13
2022-08-22T20:11:16.564Z,95383.44
2022-08-22T20:13:43.924Z,95371.66
2022-08-22T20:16:19.129Z,95365.72
2022-08-22T20:19:09.332Z,95361.94
2022-08-22T20:21:40.732Z,95351.19
2022-08-22T20:24:13.747Z,95358.69
2022-08-22T20:26:57.675Z,95370.06
2022-08-22T20:29:34.488Z,95382.50
2022-08-22T20:32:02.900Z,95394.38
2022-08-22T20:34:34.200Z,95397.09
2022-08-22T20:37:27.010Z,95388.75
2022-08-22T20:40:55.039Z,95396.50
2022-08-22T20:43:23.063Z,95397.66
2022-08-22T20:46:24.736Z,95398.44
2022-08-22T20:48:54.483Z,95410.81
2022-08-22T20:51:25.017Z,95407.84
2022-08-22T20:53:53.784Z,95412.13
2022-08-22T20:56:52.705Z,95407.31
2022-08-22T20:59:32.202Z,95417.25
2022-08-22T21:02:19.508Z,95418.56
2022-08-22T21:05:00.284Z,95423.94
2022-08-22T21:07:31.398Z,95415.31
2022-08-22T21:10:34.241Z,95419.63
2022-08-22T21:13:12.054Z,95422.31
2022-08-22T21:15:48.512Z,95426.59
2022-08-22T21:18:34.426Z,95416.13
2022-08-22T21:21:31.247Z,95416.41
2022-08-22T21:24:01.786Z,95423.09
2022-08-22T21:26:28.255Z,95433.06
2022-08-22T21:29:20.829Z,95431.44
2022-08-22T21:31:59.400Z,95433.59
2022-08-22T21:34:40.812Z,95432.03
2022-08-22T21:37:12.080Z,95422.88
2022-08-22T21:39:48.056Z,95419.13
2022-08-22T21:42:37.490Z,95422.59
2022-08-22T21:45:09.963Z,95428.25
2022-08-22T21:47:39.500Z,95426.66
2022-08-22T21:50:08.712Z,95425.03
2022-08-22T21:52:38.710Z,95431.47
2022-08-22T21:55:27.984Z,95428.78
2022-08-22T21:58:11.999Z,95420.75
2022-08-22T22:00:54.879Z,95419.41
2022-08-22T22:03:30.358Z,95416.97
2022-08-22T22:05:59.516Z,95414.03
2022-08-22T22:08:29.194Z,95413.25
2022-08-22T22:11:06.209Z,95413.25
2022-08-22T22:13:35.358Z,95414.56
2022-08-22T22:16:02.288Z,95401.97
2022-08-22T22:18:33.691Z,95399.84
2022-08-22T22:21:00.733Z,95400.91
2022-08-22T22:23:28.103Z,95403.31
2022-08-22T22:25:57.510Z,95404.13
2022-08-22T22:28:30.820Z,95395.56
2022-08-22T22:30:57.511Z,95387.50
2022-08-22T22:33:28.036Z,95390.47
2022-08-22T22:35:57.300Z,95394.78
2022-08-22T22:38:24.436Z,95389.91
2022-08-22T22:40:52.284Z,95390.72
2022-08-22T22:43:18.898Z,95392.09
2022-08-22T22:45:45.537Z,95389.66
2022-08-22T22:48:13.460Z,95397.16
2022-08-22T22:50:52.141Z,95392.84
2022-08-22T22:53:20.060Z,95386.44
2022-08-22T22:55:59.790Z,95381.06
2022-08-22T22:58:27.148Z,95383.22
2022-08-22T23:00:53.778Z,95386.97
2022-08-22T23:03:20.383Z,95385.38
2022-08-22T23:05:47.080Z,95399.63
2022-08-22T23:08:13.706Z,95390.75
2022-08-22T23:10:40.240Z,95394.53
2022-08-22T23:13:06.840Z,95388.91
2022-08-22T23:15:33.418Z,95387.00
2022-08-22T23:18:00.068Z,95394.53
2022-08-22T23:20:26.906Z,95398.28
2022-08-22T23:22:53.542Z,95399.38
2022-08-22T23:25:20.224Z,95396.94
2022-08-22T23:27:48.702Z,95403.38
2022-08-22T23:30:25.432Z,95396.44
2022-08-22T23:32:52.012Z,95400.97
2022-08-22T23:35:18.610Z,95398.56
2022-08-22T23:37:45.222Z,95398.84
2022-08-22T23:40:11.844Z,95403.13
2022-08-22T23:42:38.443Z,95404.75
2022-08-22T23:45:05.736Z,95406.88
2022-08-22T23:47:32.257Z,95404.97
2022-08-22T23:49:58.800Z,95407.41
2022-08-22T23:52:30.940Z,95411.97
2022-08-22T23:54:57.756Z,95409.03
2022-08-22T23:57:26.458Z,95406.88
2022-08-22T23:59:57.927Z,95417.59
